Weather History for Fergus Falls, MN

Change the Weather History Date:

Monday, June 23, 2014

  Actual Average Record
Temperature  
Mean Temperature 68 °F -  
Max Temperature 78 °F 76 °F 96 °F (2005)
Min Temperature 57 °F 55 °F 35 °F (2001)
Cooling Degree Days 2    
Growing Degree Days 18 (Base 50)    
Moisture  
Dew Point 56 °F    
Average Humidity 66    
Maximum Humidity 94    
Minimum Humidity 39    
Precipitation  
Precipitation 0.00 in - - ()
Sea Level Pressure  
Sea Level Pressure 29.83 in    
Wind  
Wind Speed 4 mph (NW)    
Max Wind Speed 13 mph    
Max Gust Speed 20 mph    
Visibility 10 miles    
Events      
Averages and records for this station are not official NWS values.
T = Trace of Precipitation, MM = Missing Value Source: NWS Daily Summary

Daily Weather History Graph

Daily Weather History Graph

Search for Another Location

Airport:

Trip Planner

Search our weather history database for the weather conditions in past years. The results will help you decide how hot, cold, wet, or windy it might be!

Date:

Astronomy

Jun. 23, 2014 Rise Set
Actual Time 5:33 AM CDT 9:20 PM CDT
Civil Twilight 4:54 AM CDT 9:59 PM CDT
Nautical Twilight 4:01 AM CDT 10:52 PM CDT
Astronomical Twilight 2:46 AM CDT 12:07 AM CDT
Moon 3:09 AM CDT (6/23) 5:54 PM CDT (6/23)
Length of Visible Light 17h 05m
Length of Day
15h 47m
Waning Crescent, 13% of the Moon is Illuminated
Jun 23
Waning Crescent
Jun 27
New
Jul 5
First Quarter
Jul 12
Full
Jul 18
Last Quarter

Hourly Weather History & Observations

Time (CDT) Temp. Dew Point Humidity Pressure Visibility Wind Dir Wind Speed Gust Speed Precip Events Conditions
12:14 AM 64.4 °F 55.4 °F 73% 29.82 in 10.0 mi Calm Calm - N/A   Clear
12:34 AM 64.4 °F 55.4 °F 73% 29.82 in 10.0 mi Calm Calm - N/A   Clear
12:54 AM 64.4 °F 57.2 °F 77% 29.81 in 10.0 mi North 3.5 mph - N/A   Clear
1:14 AM 62.6 °F 55.4 °F 77% 29.82 in 10.0 mi Calm Calm - N/A   Clear
1:34 AM 62.6 °F 55.4 °F 77% 29.82 in 10.0 mi NNW 5.8 mph - N/A   Clear
1:54 AM 62.6 °F 57.2 °F 82% 29.83 in 10.0 mi WNW 4.6 mph - N/A   Clear
2:14 AM 60.8 °F 55.4 °F 82% 29.83 in 10.0 mi WNW 4.6 mph - N/A   Clear
2:34 AM 60.8 °F 57.2 °F 88% 29.83 in 10.0 mi West 3.5 mph - N/A   Clear
2:54 AM 60.8 °F 57.2 °F 88% 29.82 in 10.0 mi Calm Calm - N/A   Clear
3:14 AM 60.8 °F 57.2 °F 88% 29.81 in 10.0 mi Calm Calm - N/A   Clear
3:34 AM 60.8 °F 57.2 °F 88% 29.80 in 10.0 mi North 3.5 mph - N/A   Clear
3:54 AM 60.8 °F 57.2 °F 88% 29.81 in 10.0 mi NW 3.5 mph - N/A   Clear
4:14 AM 57.2 °F 55.4 °F 94% 29.82 in 10.0 mi NW 4.6 mph - N/A   Clear
4:34 AM 60.8 °F 57.2 °F 88% 29.83 in 10.0 mi NW 3.5 mph - N/A   Clear
4:54 AM 60.8 °F 55.4 °F 82% 29.83 in 10.0 mi Calm Calm - N/A   Clear
5:14 AM 59.0 °F 57.2 °F 94% 29.83 in 10.0 mi Calm Calm - N/A   Clear
5:34 AM 59.0 °F 57.2 °F 94% 29.83 in 10.0 mi WNW 3.5 mph - N/A   Clear
5:54 AM 57.2 °F 55.4 °F 94% 29.83 in 10.0 mi Calm Calm - N/A   Clear
6:13 AM 60.8 °F 57.2 °F 88% 29.83 in 10.0 mi Calm Calm - N/A   Clear
6:34 AM 59.0 °F 57.2 °F 94% 29.84 in 10.0 mi Calm Calm - N/A   Clear
6:54 AM 60.8 °F 57.2 °F 88% 29.84 in 10.0 mi Calm Calm - N/A   Clear
7:13 AM 60.8 °F 57.2 °F 88% 29.85 in 10.0 mi Calm Calm - N/A   Clear
7:34 AM 62.6 °F 59.0 °F 88% 29.85 in 10.0 mi Calm Calm - N/A   Clear
7:54 AM 64.4 °F 59.0 °F 83% 29.85 in 10.0 mi NW 3.5 mph - N/A   Clear
8:13 AM 64.4 °F 57.2 °F 77% 29.86 in 10.0 mi West 4.6 mph - N/A   Clear
8:54 AM 66.2 °F 57.2 °F 73% 29.85 in 10.0 mi NW 3.5 mph - N/A   Clear
9:14 AM 68.0 °F 57.2 °F 68% 29.85 in 10.0 mi WNW 4.6 mph - N/A   Clear
9:34 AM 69.8 °F 55.4 °F 60% 29.85 in 10.0 mi WNW 3.5 mph - N/A   Clear
9:54 AM 71.6 °F 57.2 °F 60% 29.85 in 10.0 mi NW 4.6 mph - N/A   Clear
10:14 AM 71.6 °F 55.4 °F 57% 29.85 in 10.0 mi WNW 6.9 mph - N/A   Clear
10:34 AM 71.6 °F 57.2 °F 60% 29.85 in 10.0 mi NW 6.9 mph - N/A   Clear
10:54 AM 71.6 °F 55.4 °F 57% 29.86 in 10.0 mi WNW 11.5 mph - N/A   Scattered Clouds
11:14 AM 71.6 °F 57.2 °F 60% 29.86 in 10.0 mi NW 6.9 mph - N/A   Scattered Clouds
11:34 AM 73.4 °F 55.4 °F 53% 29.86 in 10.0 mi NW 10.4 mph - N/A   Clear
11:54 AM 73.4 °F 55.4 °F 53% 29.85 in 10.0 mi NW 11.5 mph - N/A   Clear
12:14 PM 73.4 °F 55.4 °F 53% 29.85 in 10.0 mi NW 11.5 mph 19.6 mph N/A   Scattered Clouds
12:34 PM 73.4 °F 55.4 °F 53% 29.86 in 10.0 mi WNW 12.7 mph - N/A   Scattered Clouds
12:54 PM 73.4 °F 55.4 °F 53% 29.85 in 10.0 mi NW 6.9 mph 10.4 mph N/A   Clear
1:14 PM 75.2 °F 55.4 °F 50% 29.85 in 10.0 mi WNW 10.4 mph - N/A   Scattered Clouds
1:34 PM 73.4 °F 55.4 °F 53% 29.85 in 10.0 mi WNW 9.2 mph 16.1 mph N/A   Mostly Cloudy
1:54 PM 75.2 °F 55.4 °F 50% 29.85 in 10.0 mi WNW 9.2 mph 18.4 mph N/A   Mostly Cloudy
2:14 PM 75.2 °F 55.4 °F 50% 29.85 in 10.0 mi NW 12.7 mph - N/A   Scattered Clouds
2:34 PM 75.2 °F 55.4 °F 50% 29.84 in 10.0 mi WNW 10.4 mph - N/A   Scattered Clouds
2:54 PM 77.0 °F 53.6 °F 44% 29.84 in 10.0 mi West 10.4 mph 17.3 mph N/A   Scattered Clouds
3:34 PM 77.0 °F 55.4 °F 47% 29.84 in 10.0 mi NW 10.4 mph - N/A   Mostly Cloudy
4:14 PM 75.2 °F 53.6 °F 47% 29.83 in 10.0 mi West 9.2 mph - N/A   Scattered Clouds
4:33 PM 73.4 °F 55.4 °F 53% 29.83 in 10.0 mi NW 5.8 mph - N/A   Mostly Cloudy
5:14 PM 78.8 °F 53.6 °F 42% 29.82 in 10.0 mi WNW 10.4 mph - N/A   Scattered Clouds
5:33 PM 75.2 °F 53.6 °F 47% 29.81 in 10.0 mi NW 6.9 mph - N/A   Scattered Clouds
5:54 PM 78.8 °F 53.6 °F 42% 29.81 in 10.0 mi WNW 11.5 mph - N/A   Scattered Clouds
6:14 PM 78.8 °F 51.8 °F 39% 29.80 in 10.0 mi WNW 6.9 mph 16.1 mph N/A   Clear
6:33 PM 78.8 °F 53.6 °F 42% 29.80 in 10.0 mi WNW 10.4 mph - N/A   Scattered Clouds
6:54 PM 75.2 °F 53.6 °F 47% 29.80 in 10.0 mi WNW 6.9 mph - N/A   Scattered Clouds
7:14 PM 75.2 °F 53.6 °F 47% 29.80 in 10.0 mi WNW 8.1 mph - N/A   Clear
7:33 PM 75.2 °F 53.6 °F 47% 29.80 in 10.0 mi NW 6.9 mph - N/A   Scattered Clouds
7:54 PM 73.4 °F 55.4 °F 53% 29.81 in 10.0 mi NW 6.9 mph - N/A   Clear
8:14 PM 73.4 °F 55.4 °F 53% 29.81 in 10.0 mi NW 5.8 mph - N/A   Clear
8:33 PM 73.4 °F 55.4 °F 53% 29.82 in 10.0 mi NW 3.5 mph - N/A   Clear
8:54 PM 73.4 °F 55.4 °F 53% 29.82 in 10.0 mi WNW 3.5 mph - N/A   Clear
9:14 PM 71.6 °F 57.2 °F 60% 29.82 in 10.0 mi WNW 3.5 mph - N/A   Clear
9:34 PM 71.6 °F 57.2 °F 60% 29.83 in 10.0 mi Calm Calm - N/A   Clear
9:54 PM 69.8 °F 57.2 °F 64% 29.83 in 10.0 mi Calm Calm - N/A   Clear
10:14 PM 69.8 °F 57.2 °F 64% 29.84 in 10.0 mi West 3.5 mph - N/A   Mostly Cloudy
10:34 PM 69.8 °F 57.2 °F 64% 29.84 in 10.0 mi Calm Calm - N/A   Mostly Cloudy
10:54 PM 69.8 °F 57.2 °F 64% 29.85 in 10.0 mi WNW 8.1 mph - N/A   Light Drizzle
11:14 PM 68.0 °F 57.2 °F 68% 29.85 in 10.0 mi NW 8.1 mph - N/A   Mostly Cloudy
11:34 PM 66.2 °F 55.4 °F 68% 29.85 in 10.0 mi NNW 6.9 mph - N/A   Scattered Clouds
11:54 PM 66.2 °F 55.4 °F 68% 29.85 in 10.0 mi NNW 6.9 mph - N/A   Clear